Time;durP1;ratioP1;P1;durP2;ratioP2;P2;SDS_P1;SDS_P2;PMS_P1;PMS_P2;Temp;Humidity;BMP_temperature;BMP_pressure;BME280_temperature;BME280_humidity;BME280_pressure;Samples;Min_cycle;Max_cycle;Signal;HPM_P1;HPM_P2
2024/01/05 00:01:03;;;;;;;7.45;1.20;;;9.30;99.90;;;;;;4926899;28;87934;-78
2024/01/05 00:03:29;;;;;;;10.45;1.17;;;9.30;99.90;;;;;;4920606;28;87737;-79
2024/01/05 00:05:55;;;;;;;8.13;1.27;;;9.30;99.90;;;;;;4898743;28;87786;-77
2024/01/05 00:08:21;;;;;;;8.63;1.17;;;9.30;99.90;;;;;;4899988;28;89952;-78
2024/01/05 00:10:46;;;;;;;5.57;1.08;;;9.30;99.90;;;;;;4899393;28;88605;-79
2024/01/05 00:13:12;;;;;;;9.45;1.27;;;9.30;99.90;;;;;;4922485;28;87604;-80
2024/01/05 00:15:40;;;;;;;12.52;2.55;;;9.20;99.90;;;;;;4900569;28;88518;-77
2024/01/05 00:18:06;;;;;;;12.10;1.40;;;9.20;99.90;;;;;;4890301;28;88206;-79
2024/01/05 00:20:32;;;;;;;5.15;1.20;;;9.20;99.90;;;;;;4922185;28;87851;-79
2024/01/05 00:22:57;;;;;;;9.63;1.58;;;9.20;99.90;;;;;;4912925;28;87928;-79
2024/01/05 00:25:23;;;;;;;11.32;1.55;;;9.20;99.90;;;;;;4925335;28;87302;-80
2024/01/05 00:27:55;;;;;;;11.30;1.77;;;9.20;99.90;;;;;;4920531;28;87652;-81
2024/01/05 00:30:20;;;;;;;6.13;1.42;;;9.20;99.90;;;;;;4901765;28;87770;-79
2024/01/05 00:32:46;;;;;;;9.38;1.20;;;9.10;99.90;;;;;;4924481;28;88544;-80
2024/01/05 00:35:12;;;;;;;7.00;1.10;;;9.10;99.90;;;;;;4908658;28;89572;-80
2024/01/05 00:37:38;;;;;;;7.93;1.10;;;9.10;99.90;;;;;;4923292;28;88871;-80
2024/01/05 00:40:06;;;;;;;10.13;1.40;;;9.10;99.90;;;;;;4903809;28;88270;-78
2024/01/05 00:42:31;;;;;;;10.50;1.20;;;9.10;99.90;;;;;;4928319;28;87253;-80
2024/01/05 00:44:57;;;;;;;11.23;0.90;;;9.10;99.90;;;;;;4921718;28;88698;-80
2024/01/05 00:47:23;;;;;;;13.10;1.92;;;9.10;99.90;;;;;;4922987;28;88070;-80
2024/01/05 00:49:49;;;;;;;4.90;1.17;;;9.10;99.90;;;;;;4902522;28;87950;-79
2024/01/05 00:52:15;;;;;;;9.30;0.95;;;9.00;99.90;;;;;;4905159;28;86415;-79
2024/01/05 00:54:41;;;;;;;6.38;1.17;;;9.00;99.90;;;;;;4905027;28;88054;-80
2024/01/05 00:57:06;;;;;;;11.13;1.65;;;9.00;99.90;;;;;;4920785;28;87613;-79
2024/01/05 00:59:32;;;;;;;8.13;1.45;;;9.00;99.90;;;;;;4918373;28;88369;-79
2024/01/05 01:01:58;;;;;;;8.48;1.17;;;9.00;99.90;;;;;;4902218;28;87845;-79
2024/01/05 01:04:23;;;;;;;7.35;0.90;;;9.00;99.90;;;;;;4902813;28;90553;-80
2024/01/05 01:06:50;;;;;;;6.93;1.13;;;9.00;99.90;;;;;;4920206;28;87912;-79
2024/01/05 01:09:16;;;;;;;4.30;1.15;;;9.00;99.90;;;;;;4901841;28;87311;-79
2024/01/05 01:11:42;;;;;;;6.10;1.48;;;9.00;99.90;;;;;;4919754;28;87349;-79
2024/01/05 01:14:08;;;;;;;8.82;1.33;;;9.00;99.90;;;;;;4921558;28;88582;-79
2024/01/05 01:16:34;;;;;;;11.40;1.58;;;8.90;99.90;;;;;;4920807;28;88302;-79
2024/01/05 01:19:00;;;;;;;8.93;1.20;;;8.90;99.90;;;;;;4906381;28;87208;-79
2024/01/05 01:21:26;;;;;;;10.10;1.02;;;8.80;99.90;;;;;;4901707;28;88141;-78
2024/01/05 01:23:52;;;;;;;8.00;0.85;;;8.80;99.90;;;;;;4898648;28;89845;-80
2024/01/05 01:26:17;;;;;;;13.13;1.30;;;8.80;99.90;;;;;;4917511;28;89737;-79
2024/01/05 01:28:44;;;;;;;9.20;0.90;;;8.80;99.90;;;;;;4902457;28;87596;-79
2024/01/05 01:31:10;;;;;;;8.60;1.13;;;8.80;99.90;;;;;;4925086;28;87595;-79
2024/01/05 01:33:36;;;;;;;8.70;0.88;;;8.70;99.90;;;;;;4904319;28;88650;-80
2024/01/05 01:36:02;;;;;;;4.40;1.10;;;8.70;99.90;;;;;;4916187;28;87425;-79
2024/01/05 01:38:28;;;;;;;5.90;1.20;;;8.70;99.90;;;;;;4921189;28;88930;-79
2024/01/05 01:40:56;;;;;;;7.28;1.13;;;8.70;99.90;;;;;;4902614;28;88052;-80
2024/01/05 01:43:26;;;;;;;3.13;0.80;;;8.60;99.90;;;;;;4904847;28;88138;-79
2024/01/05 01:45:57;;;;;;;4.45;0.80;;;8.60;99.90;;;;;;4906069;28;88164;-79
2024/01/05 01:48:23;;;;;;;11.20;1.45;;;8.60;99.90;;;;;;4920713;28;88839;-79
2024/01/05 01:50:51;;;;;;;9.85;0.93;;;8.60;99.90;;;;;;4896610;28;87748;-79
2024/01/05 01:53:19;;;;;;;4.30;0.80;;;8.60;99.90;;;;;;4923700;28;89537;-79
2024/01/05 01:55:47;;;;;;;6.85;0.95;;;8.60;99.90;;;;;;4919582;28;87806;-80
2024/01/05 01:58:15;;;;;;;6.50;0.88;;;8.60;99.90;;;;;;4920885;28;88218;-79
2024/01/05 02:00:40;;;;;;;9.43;1.33;;;8.60;99.90;;;;;;4917156;28;88037;-78
2024/01/05 02:03:06;;;;;;;8.75;0.88;;;8.60;99.90;;;;;;4897821;28;87481;-79
2024/01/05 02:05:32;;;;;;;7.57;1.00;;;8.60;99.90;;;;;;4901964;28;88885;-79
2024/01/05 02:07:58;;;;;;;4.97;1.27;;;8.60;99.90;;;;;;4883518;28;87993;-79
2024/01/05 02:10:24;;;;;;;13.10;0.90;;;8.60;99.90;;;;;;4897788;28;88048;-79
2024/01/05 02:12:50;;;;;;;7.80;1.30;;;8.50;99.90;;;;;;4898689;28;90655;-79
2024/01/05 02:15:17;;;;;;;5.30;0.82;;;8.50;99.90;;;;;;4918274;28;88916;-80
2024/01/05 02:17:43;;;;;;;9.80;1.70;;;8.50;99.90;;;;;;4918478;28;87893;-80
2024/01/05 02:20:09;;;;;;;7.15;0.82;;;8.50;99.90;;;;;;4923195;28;87234;-80
2024/01/05 02:22:38;;;;;;;10.02;1.15;;;8.50;99.90;;;;;;4904421;28;88018;-80
2024/01/05 02:25:04;;;;;;;7.82;0.95;;;8.50;99.90;;;;;;4914668;28;89155;-79
2024/01/05 02:27:30;;;;;;;11.88;2.40;;;8.50;99.90;;;;;;4922487;28;87676;-80
2024/01/05 02:29:56;;;;;;;7.07;1.05;;;8.50;99.90;;;;;;4928509;28;88206;-79
2024/01/05 02:32:22;;;;;;;7.30;0.82;;;8.60;99.90;;;;;;4921559;28;88155;-79
2024/01/05 02:34:48;;;;;;;7.95;1.20;;;8.60;99.90;;;;;;4922239;28;88674;-79
2024/01/05 02:37:14;;;;;;;9.30;0.93;;;8.60;99.90;;;;;;4902007;28;88469;-78
2024/01/05 02:39:40;;;;;;;8.75;1.08;;;8.60;99.90;;;;;;4916660;28;87784;-80
2024/01/05 02:42:06;;;;;;;7.22;1.17;;;8.60;99.90;;;;;;4903225;28;89635;-79
2024/01/05 02:44:32;;;;;;;4.43;0.90;;;8.60;99.90;;;;;;4920872;28;88296;-78
2024/01/05 02:46:57;;;;;;;9.50;1.15;;;8.60;99.90;;;;;;4914233;28;87523;-80
2024/01/05 02:49:23;;;;;;;11.82;3.03;;;8.60;99.90;;;;;;4919384;28;88101;-79
2024/01/05 02:51:50;;;;;;;8.05;1.15;;;8.60;99.90;;;;;;4899624;28;88925;-81
2024/01/05 02:54:17;;;;;;;7.13;1.10;;;8.60;99.90;;;;;;4900793;28;88955;-79
2024/01/05 02:56:43;;;;;;;7.75;1.80;;;8.60;99.90;;;;;;4904277;28;88347;-79
2024/01/05 02:59:09;;;;;;;3.55;1.05;;;8.50;99.90;;;;;;4897982;28;87322;-79
2024/01/05 03:01:35;;;;;;;8.27;0.88;;;8.50;99.90;;;;;;4917526;28;89056;-79
2024/01/05 03:04:03;;;;;;;7.88;1.10;;;8.50;99.90;;;;;;4921500;28;89207;-78
2024/01/05 03:06:29;;;;;;;8.75;1.17;;;8.50;99.90;;;;;;4904709;28;87726;-80
2024/01/05 03:08:55;;;;;;;8.73;0.93;;;8.50;99.90;;;;;;4898692;28;88470;-79
2024/01/05 03:11:21;;;;;;;8.07;1.10;;;8.50;99.90;;;;;;4920310;28;88172;-79
2024/01/05 03:13:47;;;;;;;4.78;1.20;;;8.50;99.90;;;;;;4925682;28;88891;-79
2024/01/05 03:16:14;;;;;;;7.80;0.88;;;8.50;99.90;;;;;;4902381;28;87530;-79
2024/01/05 03:18:39;;;;;;;6.32;1.38;;;8.50;99.90;;;;;;4921670;28;87636;-80
2024/01/05 03:21:05;;;;;;;8.95;1.08;;;8.40;99.90;;;;;;4920819;28;88361;-78
2024/01/05 03:23:31;;;;;;;7.25;0.80;;;8.40;99.90;;;;;;4918346;28;87828;-78
2024/01/05 03:25:57;;;;;;;6.45;1.10;;;8.40;99.90;;;;;;4900632;28;88167;-79
2024/01/05 03:28:23;;;;;;;8.50;1.23;;;8.40;99.90;;;;;;4900330;28;88046;-80
2024/01/05 03:30:48;;;;;;;5.45;1.20;;;8.40;99.90;;;;;;4900705;28;89142;-79
2024/01/05 03:33:14;;;;;;;7.18;0.88;;;8.40;99.90;;;;;;4918789;28;89205;-79
2024/01/05 03:35:41;;;;;;;9.85;1.05;;;8.40;99.90;;;;;;4905225;28;88713;-79
2024/01/05 03:38:07;;;;;;;4.43;0.70;;;8.30;99.90;;;;;;4903029;28;87440;-79
2024/01/05 03:40:33;;;;;;;10.35;0.95;;;8.30;99.90;;;;;;4920782;28;88231;-80
2024/01/05 03:42:58;;;;;;;7.28;0.90;;;8.40;99.90;;;;;;4920083;28;88208;-79
2024/01/05 03:45:24;;;;;;;8.88;1.13;;;8.40;99.90;;;;;;4903225;28;88435;-78
2024/01/05 03:47:50;;;;;;;4.88;0.60;;;8.40;99.90;;;;;;4916633;28;88141;-78
2024/01/05 03:50:16;;;;;;;4.45;0.73;;;8.40;99.90;;;;;;4899158;28;88914;-80
2024/01/05 03:52:42;;;;;;;4.88;0.93;;;8.40;99.90;;;;;;4914947;28;88367;-80
2024/01/05 03:55:08;;;;;;;6.75;0.93;;;8.40;99.90;;;;;;4900240;28;87642;-80
2024/01/05 03:57:33;;;;;;;6.72;0.70;;;8.40;99.90;;;;;;4916323;28;88399;-79
2024/01/05 04:00:00;;;;;;;5.93;1.00;;;8.40;99.90;;;;;;4900744;28;89401;-79
2024/01/05 04:02:26;;;;;;;7.97;0.70;;;8.50;99.90;;;;;;4926086;28;88723;-79
2024/01/05 04:04:53;;;;;;;6.50;1.08;;;8.50;99.90;;;;;;4901237;28;87802;-79
2024/01/05 04:07:19;;;;;;;7.93;1.30;;;8.50;99.90;;;;;;4904263;28;87618;-81
2024/01/05 04:09:45;;;;;;;4.68;1.13;;;8.50;99.90;;;;;;4917145;28;88195;-79
2024/01/05 04:12:11;;;;;;;6.50;0.68;;;8.60;99.90;;;;;;4900323;28;89274;-79
2024/01/05 04:14:37;;;;;;;4.95;0.60;;;8.60;99.90;;;;;;4899026;28;88820;-80
2024/01/05 04:17:05;;;;;;;4.07;0.70;;;8.60;99.90;;;;;;4904101;28;88400;-79
2024/01/05 04:19:30;;;;;;;4.18;0.68;;;8.60;99.90;;;;;;4898028;28;89028;-80
2024/01/05 04:21:56;;;;;;;5.65;0.93;;;8.60;99.90;;;;;;4922123;28;88946;-80
2024/01/05 04:24:24;;;;;;;4.90;0.90;;;8.70;99.90;;;;;;4898813;28;88713;-79
2024/01/05 04:26:50;;;;;;;3.78;1.25;;;8.70;99.90;;;;;;4884637;28;87905;-80
2024/01/05 04:29:17;;;;;;;4.85;1.13;;;8.70;99.90;;;;;;4900768;28;88651;-79
2024/01/05 04:31:42;;;;;;;4.63;0.93;;;8.70;99.90;;;;;;4925848;28;87851;-78
2024/01/05 04:34:08;;;;;;;7.80;0.70;;;8.80;99.90;;;;;;4903789;28;88203;-81
2024/01/05 04:36:34;;;;;;;4.28;0.80;;;8.80;99.90;;;;;;4902049;28;88853;-80
2024/01/05 04:39:00;;;;;;;3.55;0.60;;;8.90;99.90;;;;;;4900066;28;89582;-79
2024/01/05 04:41:25;;;;;;;4.78;0.77;;;8.90;99.90;;;;;;4898219;28;88288;-79
2024/01/05 04:43:52;;;;;;;4.60;0.80;;;9.00;99.90;;;;;;4900948;28;87679;-80
2024/01/05 04:46:18;;;;;;;6.15;0.80;;;9.00;99.90;;;;;;4904245;28;87423;-79
2024/01/05 04:48:45;;;;;;;7.75;0.63;;;9.10;99.90;;;;;;4915316;28;88160;-79
2024/01/05 04:51:11;;;;;;;7.30;0.95;;;9.10;99.90;;;;;;4893967;28;88340;-78
2024/01/05 04:53:36;;;;;;;2.92;0.50;;;9.20;99.90;;;;;;4918080;28;87584;-81
2024/01/05 04:56:03;;;;;;;6.60;0.85;;;9.20;99.90;;;;;;4897312;28;89096;-79
2024/01/05 04:58:28;;;;;;;9.38;1.13;;;9.20;99.90;;;;;;4917003;28;88605;-80
2024/01/05 05:00:55;;;;;;;6.25;0.73;;;9.30;99.90;;;;;;4916299;28;88005;-80
2024/01/05 05:03:20;;;;;;;3.20;0.90;;;9.30;99.90;;;;;;4926190;28;88147;-79
2024/01/05 05:05:46;;;;;;;4.85;0.63;;;9.40;99.90;;;;;;4914695;28;87495;-80
2024/01/05 05:08:13;;;;;;;4.93;0.60;;;9.40;99.90;;;;;;4918514;28;89074;-80
2024/01/05 05:10:40;;;;;;;3.22;0.68;;;9.30;99.90;;;;;;4916533;28;87793;-80
2024/01/05 05:13:06;;;;;;;4.07;0.65;;;9.30;99.90;;;;;;4915063;28;87322;-79
2024/01/05 05:15:32;;;;;;;7.32;0.80;;;9.30;99.90;;;;;;4898677;28;87581;-80
2024/01/05 05:17:58;;;;;;;6.15;0.60;;;9.30;99.90;;;;;;4917191;28;89116;-79
2024/01/05 05:20:23;;;;;;;3.20;0.57;;;9.30;99.90;;;;;;4896261;28;87290;-81
2024/01/05 05:22:49;;;;;;;5.45;0.70;;;9.20;99.90;;;;;;4899608;28;87742;-78
2024/01/05 05:25:16;;;;;;;5.07;0.52;;;9.20;99.90;;;;;;4900724;28;88395;-81
2024/01/05 05:27:41;;;;;;;3.08;0.45;;;9.20;99.90;;;;;;4924402;28;90311;-79
2024/01/05 05:30:09;;;;;;;5.00;0.52;;;9.10;99.90;;;;;;4894558;28;90955;-80
2024/01/05 05:32:35;;;;;;;1.95;0.50;;;9.10;99.90;;;;;;4898567;28;88158;-80
2024/01/05 05:35:01;;;;;;;5.00;0.60;;;9.00;99.90;;;;;;4902470;28;87050;-79
2024/01/05 05:37:27;;;;;;;4.63;0.40;;;9.00;99.90;;;;;;4902588;28;88893;-79
2024/01/05 05:39:52;;;;;;;4.78;0.30;;;8.90;99.90;;;;;;4895487;28;89192;-80
2024/01/05 05:42:18;;;;;;;1.40;0.30;;;8.90;99.90;;;;;;4896764;28;87679;-80
2024/01/05 05:44:44;;;;;;;1.25;0.30;;;8.90;99.90;;;;;;4902400;28;88272;-81
2024/01/05 05:47:10;;;;;;;2.78;0.38;;;8.80;99.90;;;;;;4898677;28;89096;-77
2024/01/05 05:49:36;;;;;;;4.68;0.30;;;8.80;99.90;;;;;;4897553;28;88401;-79
2024/01/05 05:52:02;;;;;;;4.45;0.50;;;8.80;99.90;;;;;;4915924;28;88106;-81
2024/01/05 05:54:27;;;;;;;4.07;0.30;;;8.80;99.90;;;;;;4893824;28;87669;-79
2024/01/05 05:56:53;;;;;;;2.25;0.30;;;8.80;99.90;;;;;;4914926;28;88113;-79
2024/01/05 05:59:20;;;;;;;2.35;0.25;;;8.80;99.90;;;;;;4897278;28;88549;-81
2024/01/05 06:01:47;;;;;;;3.03;0.30;;;8.80;99.90;;;;;;4898053;28;87070;-79
2024/01/05 06:04:13;;;;;;;2.33;0.25;;;8.80;99.90;;;;;;4895540;28;87780;-80
2024/01/05 06:06:40;;;;;;;1.90;0.30;;;8.80;99.90;;;;;;4898485;28;88769;-80
2024/01/05 06:09:14;;;;;;;1.83;0.20;;;8.80;99.90;;;;;;4912966;28;89195;-79
2024/01/05 06:11:40;;;;;;;0.47;0.30;;;8.80;99.90;;;;;;4918333;28;87758;-79
2024/01/05 06:14:06;;;;;;;0.28;0.20;;;8.80;99.90;;;;;;4897072;28;89158;-79
2024/01/05 06:16:32;;;;;;;0.43;0.20;;;8.80;99.90;;;;;;4896943;28;90040;-81
2024/01/05 06:18:58;;;;;;;1.73;0.30;;;8.80;99.90;;;;;;4897430;28;88356;-79
2024/01/05 06:21:25;;;;;;;1.38;0.25;;;8.70;99.90;;;;;;4891842;28;87997;-79
2024/01/05 06:23:51;;;;;;;2.42;0.30;;;8.70;99.90;;;;;;4911582;28;88568;-80
2024/01/05 06:26:16;;;;;;;0.60;0.20;;;8.70;99.90;;;;;;4898706;28;88209;-79
2024/01/05 06:28:43;;;;;;;1.80;0.20;;;8.70;99.90;;;;;;4911981;28;87469;-80
2024/01/05 06:31:08;;;;;;;1.38;0.10;;;8.60;99.90;;;;;;4901583;28;87788;-79
2024/01/05 06:33:35;;;;;;;0.10;0.10;;;8.60;99.90;;;;;;4886165;28;88023;-81
2024/01/05 06:36:00;;;;;;;0.10;0.10;;;8.50;99.90;;;;;;4877848;28;87854;-80
2024/01/05 06:38:26;;;;;;;2.60;0.15;;;8.50;99.90;;;;;;4909438;28;87465;-81
2024/01/05 06:40:52;;;;;;;2.08;0.20;;;8.40;99.90;;;;;;4910427;28;88183;-78
2024/01/05 06:43:17;;;;;;;1.25;0.20;;;8.40;99.90;;;;;;4919444;28;87483;-79
2024/01/05 06:45:43;;;;;;;0.38;0.20;;;8.40;99.90;;;;;;4897985;28;88683;-80
2024/01/05 06:48:09;;;;;;;0.17;0.17;;;8.40;99.90;;;;;;4896546;28;88570;-79
2024/01/05 06:50:35;;;;;;;0.30;0.10;;;8.40;99.90;;;;;;4919020;28;88337;-79
2024/01/05 06:53:01;;;;;;;1.05;0.63;;;8.40;99.90;;;;;;4896508;28;88349;-77
2024/01/05 06:55:27;;;;;;;0.68;0.22;;;8.40;99.90;;;;;;4899106;28;88776;-81
2024/01/05 06:57:53;;;;;;;0.70;0.10;;;8.30;99.90;;;;;;4898660;28;88332;-80
2024/01/05 07:00:19;;;;;;;1.23;0.10;;;8.30;99.90;;;;;;4922154;28;87244;-81
2024/01/05 07:02:45;;;;;;;0.65;0.10;;;8.30;99.90;;;;;;4899884;28;87680;-80
2024/01/05 07:05:11;;;;;;;0.45;0.20;;;8.30;99.90;;;;;;4899361;28;90574;-81
2024/01/05 07:07:39;;;;;;;0.28;0.10;;;8.20;99.90;;;;;;4896612;28;89635;-79
2024/01/05 07:10:05;;;;;;;0.15;0.10;;;8.20;99.90;;;;;;4920546;28;87756;-80
2024/01/05 07:12:31;;;;;;;2.33;0.20;;;8.20;99.90;;;;;;4899652;28;88705;-81
2024/01/05 07:14:57;;;;;;;1.42;0.13;;;8.10;99.90;;;;;;4918977;28;88928;-79
2024/01/05 07:17:23;;;;;;;1.65;0.20;;;8.10;99.90;;;;;;4908349;28;88064;-80
2024/01/05 07:19:50;;;;;;;0.10;0.10;;;8.10;99.90;;;;;;4926259;28;87400;-79
2024/01/05 07:22:16;;;;;;;1.67;0.15;;;8.10;99.90;;;;;;4911268;28;88261;-81
2024/01/05 07:24:42;;;;;;;3.15;0.30;;;8.10;99.90;;;;;;4904218;28;88295;-81
2024/01/05 07:27:10;;;;;;;2.00;0.20;;;8.10;99.90;;;;;;4923517;28;88174;-79
2024/01/05 07:29:36;;;;;;;2.80;0.50;;;8.10;99.90;;;;;;4927045;28;88609;-79
2024/01/05 07:32:04;;;;;;;0.40;0.20;;;8.10;99.90;;;;;;4907125;28;87934;-81
2024/01/05 07:34:30;;;;;;;0.68;0.20;;;8.10;99.90;;;;;;4928320;28;88295;-81
2024/01/05 07:36:56;;;;;;;1.92;0.30;;;8.10;99.90;;;;;;4927565;28;87258;-80
2024/01/05 07:39:22;;;;;;;1.48;0.30;;;8.00;99.90;;;;;;4926779;28;87532;-80
2024/01/05 07:41:49;;;;;;;1.05;0.22;;;8.00;99.90;;;;;;4893797;28;88124;-81
2024/01/05 07:44:16;;;;;;;0.20;0.20;;;8.00;99.90;;;;;;4928093;28;88147;-80
2024/01/05 07:46:44;;;;;;;2.90;0.28;;;7.90;99.90;;;;;;4907737;28;88425;-79
2024/01/05 07:49:10;;;;;;;0.52;0.20;;;7.90;99.90;;;;;;4926415;28;87081;-82
2024/01/05 07:51:36;;;;;;;1.80;0.40;;;7.90;99.90;;;;;;4905892;28;87398;-81
2024/01/05 07:54:02;;;;;;;2.83;0.10;;;7.90;99.90;;;;;;4907680;28;89028;-81
2024/01/05 07:56:28;;;;;;;2.65;0.95;;;7.90;99.90;;;;;;4899268;28;87502;-79
2024/01/05 07:58:53;;;;;;;1.27;0.20;;;7.90;99.90;;;;;;4921999;28;87707;-80
2024/01/05 08:01:20;;;;;;;3.05;0.30;;;7.90;99.90;;;;;;4923186;28;87967;-79
2024/01/05 08:03:48;;;;;;;2.72;0.20;;;7.80;99.90;;;;;;4901823;28;89035;-79
2024/01/05 08:06:18;;;;;;;5.18;0.73;;;7.80;99.90;;;;;;4916777;28;87931;-80
2024/01/05 08:08:48;;;;;;;3.20;0.47;;;7.90;99.90;;;;;;4922856;28;87300;-81
2024/01/05 08:11:14;;;;;;;2.15;0.98;;;7.80;99.90;;;;;;4919965;28;86928;-81
2024/01/05 08:13:44;;;;;;;1.25;0.28;;;7.80;99.90;;;;;;4899143;28;88296;-81
2024/01/05 08:16:12;;;;;;;2.30;0.30;;;7.80;99.90;;;;;;4921213;28;88047;-80
2024/01/05 08:18:39;;;;;;;0.60;0.20;;;7.80;99.90;;;;;;4922917;28;88430;-84
2024/01/05 08:21:05;;;;;;;1.05;0.38;;;7.70;99.90;;;;;;4906349;28;90704;-79
2024/01/05 08:23:36;;;;;;;4.55;0.35;;;7.70;99.90;;;;;;4909672;28;88818;-80
2024/01/05 08:26:10;;;;;;;1.25;0.30;;;7.70;99.90;;;;;;4922226;28;88727;-81
2024/01/05 08:28:39;;;;;;;2.22;0.38;;;7.70;99.90;;;;;;4919069;28;87822;-80
2024/01/05 08:31:05;;;;;;;2.58;0.30;;;7.60;99.90;;;;;;4905093;28;88125;-79
2024/01/05 08:33:31;;;;;;;2.67;0.38;;;7.60;99.90;;;;;;4904904;28;88344;-80
2024/01/05 08:35:57;;;;;;;2.33;0.30;;;7.50;99.90;;;;;;4924757;28;87929;-80
2024/01/05 08:38:23;;;;;;;1.65;0.30;;;7.50;99.90;;;;;;4901723;28;88004;-80
2024/01/05 08:40:52;;;;;;;2.13;0.32;;;7.50;99.90;;;;;;4905946;28;87960;-79
2024/01/05 08:43:19;;;;;;;5.35;0.50;;;7.50;99.90;;;;;;4907803;28;88440;-79
2024/01/05 08:45:46;;;;;;;0.77;0.30;;;7.50;99.90;;;;;;4907187;28;89343;-79
2024/01/05 08:48:14;;;;;;;2.92;0.50;;;7.50;99.90;;;;;;4905149;28;87539;-83
2024/01/05 08:50:41;;;;;;;4.32;0.50;;;7.50;99.90;;;;;;4905727;28;87895;-79
2024/01/05 08:53:08;;;;;;;2.10;0.30;;;7.40;99.90;;;;;;4900922;28;87887;-79
2024/01/05 08:55:35;;;;;;;2.38;0.40;;;7.40;99.90;;;;;;4902445;28;89445;-79
2024/01/05 08:58:04;;;;;;;1.55;0.40;;;7.50;99.90;;;;;;4925472;28;88490;-81
2024/01/05 09:00:30;;;;;;;1.55;0.50;;;7.50;99.90;;;;;;4922419;28;87408;-81
2024/01/05 09:02:56;;;;;;;3.15;0.47;;;7.40;99.90;;;;;;4902368;28;88001;-79
2024/01/05 09:05:23;;;;;;;2.50;0.43;;;7.50;99.90;;;;;;4903331;28;88678;-80
2024/01/05 09:07:49;;;;;;;3.13;0.35;;;7.50;99.90;;;;;;4902623;28;88691;-79
2024/01/05 09:10:15;;;;;;;2.78;0.50;;;7.50;99.90;;;;;;4923850;28;87680;-80
2024/01/05 09:12:42;;;;;;;1.90;0.55;;;7.50;99.90;;;;;;4911966;28;90002;-79
2024/01/05 09:15:09;;;;;;;2.90;0.73;;;7.50;99.90;;;;;;4926580;28;88677;-79
2024/01/05 09:17:36;;;;;;;3.17;0.60;;;7.60;99.90;;;;;;4890608;28;87498;-79
2024/01/05 09:20:03;;;;;;;3.97;0.70;;;7.60;99.90;;;;;;4919726;28;88102;-79
2024/01/05 09:22:29;;;;;;;3.35;0.68;;;7.60;99.90;;;;;;4918862;28;88221;-79
2024/01/05 09:24:54;;;;;;;6.50;0.70;;;7.60;99.90;;;;;;4922535;28;87944;-80
2024/01/05 09:27:20;;;;;;;6.63;1.00;;;7.60;99.90;;;;;;4921784;28;87488;-80
2024/01/05 09:29:46;;;;;;;4.65;0.80;;;7.60;99.90;;;;;;4923440;28;87630;-81
2024/01/05 09:32:15;;;;;;;4.82;0.55;;;7.60;99.90;;;;;;4899448;28;88790;-79
2024/01/05 09:34:43;;;;;;;7.63;0.75;;;7.60;99.90;;;;;;4900797;28;91459;-81
2024/01/05 09:37:10;;;;;;;4.15;0.77;;;7.60;99.90;;;;;;4919307;28;87522;-80
2024/01/05 09:39:36;;;;;;;3.70;0.60;;;7.60;99.90;;;;;;4882944;28;87811;-78
2024/01/05 09:42:02;;;;;;;7.25;0.68;;;7.60;99.90;;;;;;4901629;28;88313;-79
2024/01/05 09:44:30;;;;;;;2.60;0.50;;;7.60;99.90;;;;;;4900073;28;87907;-79
2024/01/05 09:46:57;;;;;;;7.43;1.00;;;7.60;99.90;;;;;;4923023;28;87623;-81
2024/01/05 09:49:22;;;;;;;2.00;0.43;;;7.60;99.90;;;;;;4916526;28;88184;-81
2024/01/05 09:51:51;;;;;;;6.03;0.75;;;7.60;99.90;;;;;;4900449;28;88261;-79
2024/01/05 09:54:17;;;;;;;4.90;0.57;;;7.60;99.90;;;;;;4912404;28;87994;-80
2024/01/05 09:56:49;;;;;;;9.45;0.85;;;7.60;99.90;;;;;;4921269;28;89205;-80
2024/01/05 09:59:19;;;;;;;3.72;0.70;;;7.60;99.90;;;;;;4900454;28;88656;-79
2024/01/05 10:01:50;;;;;;;5.60;1.05;;;7.60;99.90;;;;;;4916955;28;88325;-81
2024/01/05 10:04:19;;;;;;;10.93;1.83;;;7.70;99.90;;;;;;4913317;28;88758;-79
2024/01/05 10:06:44;;;;;;;6.43;1.10;;;7.70;99.90;;;;;;4916425;28;87958;-78
2024/01/05 10:09:10;;;;;;;5.00;0.80;;;7.70;99.90;;;;;;4915680;28;87596;-78
2024/01/05 10:11:42;;;;;;;9.15;0.95;;;7.80;99.90;;;;;;4897943;28;88706;-78
2024/01/05 10:14:14;;;;;;;7.25;1.20;;;7.80;99.90;;;;;;4915937;28;88074;-81
2024/01/05 10:16:40;;;;;;;5.47;0.75;;;7.80;99.90;;;;;;4899750;28;87142;-81
2024/01/05 10:19:12;;;;;;;11.45;0.80;;;7.90;99.90;;;;;;4915071;28;87046;-81
2024/01/05 10:21:44;;;;;;;7.63;1.00;;;7.90;99.90;;;;;;4922528;28;88817;-82
2024/01/05 10:24:27;;;;;;;8.05;1.10;;;7.90;99.90;;;;;;4925727;28;88452;-83
2024/01/05 10:27:04;;;;;;;;;;;7.90;99.90;;;;;;4924758;28;87311;-79
2024/01/05 10:29:30;;;;;;;4.45;0.45;;;7.90;99.90;;;;;;4916132;28;86932;-80
2024/01/05 10:32:15;;;;;;;7.05;1.05;;;7.90;99.90;;;;;;4930374;28;87600;-84
2024/01/05 10:34:46;;;;;;;5.53;0.80;;;7.90;99.90;;;;;;4931065;28;89120;-81
2024/01/05 10:37:13;;;;;;;11.32;0.88;;;7.90;99.90;;;;;;4917583;28;87858;-79
2024/01/05 10:39:44;;;;;;;3.75;0.73;;;7.90;99.90;;;;;;4920665;28;86501;-83
2024/01/05 10:42:37;;;;;;;5.78;0.60;;;7.90;99.90;;;;;;4922535;28;87842;-82
2024/01/05 10:45:11;;;;;;;1.98;0.60;;;7.90;99.90;;;;;;4919573;28;87000;-82
2024/01/05 10:47:37;;;;;;;3.35;0.68;;;7.90;99.90;;;;;;4930798;28;87797;-81
2024/01/05 10:50:04;;;;;;;7.32;1.05;;;7.90;99.90;;;;;;4919341;28;87164;-82
2024/01/05 10:52:33;;;;;;;4.03;0.70;;;7.90;99.90;;;;;;4919799;28;87740;-82
2024/01/05 10:55:03;;;;;;;5.63;0.70;;;7.90;99.90;;;;;;4919303;28;88429;-83
2024/01/05 10:57:31;;;;;;;7.25;1.13;;;7.90;99.90;;;;;;4940869;28;87032;-81
2024/01/05 10:59:57;;;;;;;8.52;1.15;;;7.90;99.90;;;;;;4901250;28;87444;-80
2024/01/05 11:02:32;;;;;;;4.70;0.70;;;7.90;99.90;;;;;;4915448;28;87301;-83
2024/01/05 11:05:10;;;;;;;3.55;0.70;;;7.90;99.90;;;;;;4937310;28;86387;-79
2024/01/05 11:07:40;;;;;;;6.68;0.82;;;7.90;99.90;;;;;;4938922;28;86923;-80
2024/01/05 11:10:24;;;;;;;6.30;0.90;;;7.90;99.90;;;;;;4925475;28;87307;-81
2024/01/05 11:13:28;;;;;;;4.90;0.90;;;7.90;99.90;;;;;;4937654;28;89375;-80
2024/01/05 11:15:56;;;;;;;5.90;0.93;;;7.80;99.90;;;;;;5315225;23;91357;-78
2024/01/05 11:23:38;;;;;;;7.18;1.20;;;7.70;99.90;;;;;;5278349;22;88541;-79
2024/01/05 11:26:10;;;;;;;6.35;0.80;;;7.80;99.90;;;;;;5034392;22;88740;-79
2024/01/05 11:28:38;;;;;;;7.78;1.25;;;7.70;99.90;;;;;;5713445;22;89688;-77
2024/01/05 11:38:49;;;;;;;7.47;0.85;;;7.70;99.90;;;;;;5731859;23;89272;-77
2024/01/05 11:59:35;;;;;;;10.13;1.08;;;7.50;99.90;;;;;;5255959;23;87554;-87
2024/01/05 12:02:05;;;;;;;11.00;1.00;;;7.50;99.90;;;;;;4938868;28;87028;-88
2024/01/05 12:04:48;;;;;;;8.30;0.80;;;7.50;99.90;;;;;;4922811;28;88215;-85
2024/01/05 12:07:19;;;;;;;8.45;0.95;;;7.50;99.90;;;;;;4918922;28;87662;-79
2024/01/05 12:09:51;;;;;;;6.65;1.02;;;7.50;99.90;;;;;;4936178;28;87919;-85
2024/01/05 12:12:18;;;;;;;9.95;1.35;;;7.50;99.90;;;;;;4896584;28;87659;-83
2024/01/05 12:14:46;;;;;;;5.35;0.85;;;7.50;99.90;;;;;;4984073;23;87184;-84
2024/01/05 12:17:13;;;;;;;10.13;1.50;;;7.50;99.90;;;;;;4944319;28;87931;-82
2024/01/05 12:19:39;;;;;;;8.85;1.27;;;7.50;99.90;;;;;;4908691;28;86355;-81
2024/01/05 12:22:07;;;;;;;5.97;1.10;;;7.60;99.90;;;;;;4936710;28;86661;-83
2024/01/05 12:24:34;;;;;;;6.07;1.45;;;7.60;99.90;;;;;;4930220;28;88137;-79
2024/01/05 12:27:00;;;;;;;5.50;1.00;;;7.60;99.90;;;;;;4940024;28;87144;-81
2024/01/05 12:29:26;;;;;;;4.53;1.05;;;7.70;99.90;;;;;;4927324;28;88260;-81
2024/01/05 12:31:53;;;;;;;7.95;1.30;;;7.70;99.90;;;;;;4914896;28;88148;-81
2024/01/05 12:34:19;;;;;;;12.38;1.92;;;7.70;99.90;;;;;;4919007;28;87932;-80
2024/01/05 12:36:45;;;;;;;4.28;1.50;;;7.70;99.90;;;;;;4947454;28;87389;-83
2024/01/05 12:39:11;;;;;;;3.22;1.52;;;7.70;99.90;;;;;;4947558;28;87294;-86
2024/01/05 12:41:42;;;;;;;7.50;1.35;;;7.70;99.90;;;;;;4944375;28;87596;-79
2024/01/05 12:44:14;;;;;;;3.70;1.08;;;7.70;99.90;;;;;;4937403;28;88002;-84
2024/01/05 12:54:38;;;;;;;6.90;1.30;;;7.70;99.90;;;;;;4992534;23;88618;-80
2024/01/05 12:57:04;;;;;;;8.57;1.45;;;7.80;99.90;;;;;;5201076;23;88523;-76
2024/01/05 12:59:32;;;;;;;4.43;1.20;;;7.70;99.90;;;;;;5100190;22;87762;-76
2024/01/05 13:02:00;;;;;;;2.10;0.90;;;7.80;99.90;;;;;;4948218;28;87178;-78
2024/01/05 13:04:29;;;;;;;7.50;1.17;;;7.80;99.90;;;;;;4946763;28;87367;-80
2024/01/05 13:06:55;;;;;;;4.57;0.93;;;7.80;99.90;;;;;;4916002;28;92367;-79
2024/01/05 13:09:21;;;;;;;4.80;1.27;;;7.80;99.90;;;;;;4929919;28;87373;-81
2024/01/05 13:11:54;;;;;;;6.97;1.50;;;7.80;99.90;;;;;;4920059;28;86385;-78
2024/01/05 13:14:20;;;;;;;4.70;1.00;;;7.80;99.90;;;;;;4933512;28;88190;-81
2024/01/05 13:16:48;;;;;;;8.55;2.00;;;7.80;99.90;;;;;;4933897;28;88016;-83
2024/01/05 13:19:16;;;;;;;5.05;1.25;;;7.80;99.90;;;;;;4935318;28;88734;-80
2024/01/05 13:21:42;;;;;;;6.93;1.33;;;7.80;99.90;;;;;;4934280;28;88155;-80
2024/01/05 13:24:09;;;;;;;8.38;1.92;;;7.80;99.90;;;;;;4934975;28;88798;-83
2024/01/05 13:26:34;;;;;;;5.53;1.33;;;7.80;99.90;;;;;;4916258;28;88018;-80
2024/01/05 13:29:01;;;;;;;6.18;1.20;;;7.80;99.90;;;;;;4933559;28;86982;-78
2024/01/05 13:31:26;;;;;;;7.72;1.85;;;7.80;99.90;;;;;;4936707;28;87481;-83
2024/01/05 13:33:52;;;;;;;5.57;1.70;;;7.80;99.90;;;;;;4934129;28;87722;-81